Time;durP1;ratioP1;P1;durP2;ratioP2;P2;SDS_P1;SDS_P2;PMS_P1;PMS_P2;Temp;Humidity;BMP_temperature;BMP_pressure;BME280_temperature;BME280_humidity;BME280_pressure;Samples;Min_cycle;Max_cycle;Signal;HPM_P1;HPM_P2
2023/10/12 00:00:33;;;;;;;23.15;10.80;;;16.20;86.70;;;;;;6173515;28;20059;-76
2023/10/12 00:03:35;;;;;;;20.08;10.98;;;16.20;86.70;;;;;;6197213;28;20061;-76
2023/10/12 00:06:37;;;;;;;26.75;11.32;;;16.20;86.70;;;;;;6173847;28;20137;-77
2023/10/12 00:09:39;;;;;;;23.15;10.43;;;16.20;86.60;;;;;;6197081;28;20074;-77
2023/10/12 00:12:47;;;;;;;23.35;10.85;;;16.20;86.70;;;;;;6176237;28;20524;-77
2023/10/12 00:15:48;;;;;;;20.92;11.02;;;16.20;86.80;;;;;;6197387;28;20062;-77
2023/10/12 00:18:50;;;;;;;23.63;11.10;;;16.20;86.80;;;;;;6173166;28;20047;-77
2023/10/12 00:22:02;;;;;;;21.92;11.13;;;16.20;86.80;;;;;;6196382;28;20490;-77
2023/10/12 00:25:04;;;;;;;26.33;12.55;;;16.20;86.70;;;;;;6173255;28;20058;-77
2023/10/12 00:28:07;;;;;;;22.35;11.50;;;16.20;86.70;;;;;;6193002;28;20136;-77
2023/10/12 00:31:17;;;;;;;21.45;10.27;;;16.10;86.70;;;;;;6197131;28;20371;-77
2023/10/12 00:34:23;;;;;;;22.73;11.23;;;16.10;86.80;;;;;;6172647;28;20054;-77
2023/10/12 00:37:24;;;;;;;23.95;12.20;;;16.20;86.90;;;;;;6196774;28;20568;-77
2023/10/12 00:40:30;;;;;;;24.95;11.93;;;16.10;86.80;;;;;;6195752;28;20058;-77
2023/10/12 00:43:37;;;;;;;23.80;11.15;;;16.10;86.90;;;;;;6179532;28;20542;-77
2023/10/12 00:49:48;;;;;;;23.70;10.82;;;16.00;86.90;;;;;;6173106;28;20164;-77
2023/10/12 00:52:57;;;;;;;24.83;11.60;;;16.00;86.90;;;;;;6171883;28;20153;-77
2023/10/12 00:56:01;;;;;;;23.05;11.48;;;16.00;87.00;;;;;;6170430;28;20189;-77
2023/10/12 00:59:03;;;;;;;27.70;11.20;;;16.10;87.20;;;;;;6192044;28;20078;-77
2023/10/12 01:02:08;;;;;;;22.95;11.52;;;16.10;87.10;;;;;;6195942;28;20423;-77
2023/10/12 01:05:10;;;;;;;22.27;11.68;;;16.10;87.00;;;;;;6172285;28;20129;-77
2023/10/12 01:08:18;;;;;;;22.15;11.27;;;16.10;87.10;;;;;;6195412;28;20062;-77
2023/10/12 01:11:20;;;;;;;21.75;11.65;;;16.10;87.10;;;;;;6172119;28;20061;-77
2023/10/12 01:14:26;;;;;;;24.65;11.25;;;16.00;87.00;;;;;;6189169;28;20058;-77
2023/10/12 01:17:34;;;;;;;27.08;10.90;;;16.10;87.20;;;;;;6196262;28;20046;-77
2023/10/12 01:20:39;;;;;;;22.15;10.07;;;16.10;87.20;;;;;;6171607;28;20086;-77
2023/10/12 01:23:41;;;;;;;25.95;10.73;;;16.10;87.20;;;;;;6195478;28;20135;-78
2023/10/12 01:26:48;;;;;;;18.85;9.30;;;16.10;87.20;;;;;;6195281;28;20525;-77
2023/10/12 01:29:50;;;;;;;25.33;9.75;;;16.10;87.20;;;;;;6166770;28;20047;-78
2023/10/12 01:32:58;;;;;;;25.15;10.30;;;16.20;87.30;;;;;;6195169;28;20516;-78
2023/10/12 01:35:59;;;;;;;21.83;9.63;;;16.10;87.30;;;;;;6171492;28;20103;-79
2023/10/12 01:39:12;;;;;;;18.42;9.65;;;16.20;87.30;;;;;;6194724;28;20046;-78
2023/10/12 01:42:20;;;;;;;24.40;9.68;;;16.20;87.40;;;;;;6171888;28;20055;-78
2023/10/12 01:48:33;;;;;;;17.05;9.18;;;16.20;87.50;;;;;;6194714;28;20049;-78
2023/10/12 01:51:44;;;;;;;19.67;8.38;;;16.20;87.50;;;;;;6171090;28;20054;-78
2023/10/12 01:54:49;;;;;;;16.48;7.82;;;16.20;87.50;;;;;;6186745;28;20054;-78
2023/10/12 01:57:52;;;;;;;19.92;8.13;;;16.30;87.60;;;;;;6173115;28;20550;-78
2023/10/12 02:00:54;;;;;;;19.50;8.38;;;16.30;87.70;;;;;;6194990;28;20141;-75
2023/10/12 02:03:56;;;;;;;21.40;8.65;;;16.30;87.70;;;;;;6169848;28;20050;-76
2023/10/12 02:06:58;;;;;;;19.65;8.68;;;16.30;87.60;;;;;;6194333;28;20065;-78
2023/10/12 02:10:10;;;;;;;19.15;8.40;;;16.40;87.80;;;;;;6195139;28;20490;-78
2023/10/12 02:13:12;;;;;;;26.33;10.48;;;16.40;87.80;;;;;;6174486;28;20110;-78
2023/10/12 02:16:23;;;;;;;17.63;8.00;;;16.40;87.80;;;;;;6208366;28;20573;-78
2023/10/12 02:19:43;;;;;;;19.50;7.13;;;16.40;87.90;;;;;;6172993;28;20142;-78
2023/10/12 02:22:44;;;;;;;17.27;7.28;;;16.40;87.90;;;;;;6171034;28;20154;-76
2023/10/12 02:25:50;;;;;;;20.10;7.82;;;16.40;87.90;;;;;;6194087;28;20073;-76
2023/10/12 02:28:53;;;;;;;19.42;7.03;;;16.50;87.90;;;;;;6179884;28;20050;-76
2023/10/12 02:31:58;;;;;;;20.73;6.95;;;16.50;88.10;;;;;;6194463;28;20057;-78
2023/10/12 02:35:04;;;;;;;20.27;7.40;;;16.40;88.00;;;;;;6170206;28;20059;-78
2023/10/12 02:38:14;;;;;;;18.98;6.85;;;16.50;88.10;;;;;;6194506;28;20050;-78
2023/10/12 02:41:16;;;;;;;;;;;16.50;88.20;;;;;;6170727;28;20062;-78
2023/10/12 02:44:19;;;;;;;15.88;6.47;;;16.50;88.20;;;;;;6190290;28;19926;-77
2023/10/12 02:47:24;;;;;;;15.45;6.43;;;16.50;88.30;;;;;;6171034;28;20054;-78
2023/10/12 02:50:29;;;;;;;15.93;5.88;;;16.60;88.30;;;;;;6194068;28;20050;-78
2023/10/12 02:53:31;;;;;;;19.17;6.45;;;16.60;88.30;;;;;;6170597;28;20501;-77
2023/10/12 02:56:35;;;;;;;11.65;5.88;;;16.60;88.30;;;;;;6170974;28;20059;-78
2023/10/12 02:59:39;;;;;;;15.85;6.35;;;16.50;88.30;;;;;;6193893;28;20053;-78
2023/10/12 03:02:43;;;;;;;11.73;5.47;;;16.60;88.50;;;;;;6170108;28;20533;-78
2023/10/12 03:05:47;;;;;;;14.00;5.32;;;16.60;88.50;;;;;;6193988;28;20169;-78
2023/10/12 03:09:14;;;;;;;13.13;5.47;;;16.60;88.50;;;;;;6170888;28;20074;-75
2023/10/12 03:12:16;;;;;;;15.02;5.82;;;16.70;88.60;;;;;;6194105;28;20101;-78
2023/10/12 03:15:17;;;;;;;14.52;5.82;;;16.70;88.60;;;;;;6166833;28;20085;-77
2023/10/12 03:18:19;;;;;;;13.35;5.60;;;16.70;88.70;;;;;;6198807;28;20050;-77
2023/10/12 03:21:23;;;;;;;13.13;5.78;;;16.70;88.80;;;;;;6174777;28;20070;-78
2023/10/12 03:24:29;;;;;;;11.55;5.03;;;16.80;88.80;;;;;;6198502;28;20106;-78
2023/10/12 03:27:33;;;;;;;10.75;5.07;;;16.80;88.80;;;;;;6171674;28;20502;-73
2023/10/12 03:30:43;;;;;;;11.60;5.32;;;16.70;88.80;;;;;;6198363;28;20046;-78
2023/10/12 03:33:53;;;;;;;12.85;5.50;;;16.70;88.80;;;;;;6173856;28;20137;-75
2023/10/12 03:36:58;;;;;;;11.95;5.28;;;16.70;88.80;;;;;;6174481;28;20419;-78
2023/10/12 03:40:08;;;;;;;9.80;4.88;;;16.80;88.90;;;;;;6197638;28;20464;-78
2023/10/12 03:46:26;;;;;;;12.70;5.30;;;16.80;89.00;;;;;;6174644;28;20054;-87
2023/10/12 03:49:32;;;;;;;12.98;5.65;;;16.80;89.10;;;;;;6183748;28;20055;-87
2023/10/12 03:52:42;;;;;;;12.65;5.30;;;16.80;89.00;;;;;;6182436;28;20051;-88
2023/10/12 03:55:49;;;;;;;10.15;5.05;;;16.80;89.10;;;;;;6166487;28;20512;-88
2023/10/12 03:59:02;;;;;;;14.35;4.90;;;16.80;89.10;;;;;;6172862;28;20073;-88
2023/10/12 04:02:03;;;;;;;13.13;5.43;;;16.80;89.10;;;;;;6174869;28;20066;-88
2023/10/12 04:05:22;;;;;;;12.02;5.05;;;16.80;89.20;;;;;;6174774;28;20051;-88
2023/10/12 04:14:55;;;;;;;11.57;4.55;;;16.90;89.30;;;;;;6149186;28;20055;-88
2023/10/12 04:17:59;;;;;;;7.80;4.43;;;16.80;88.10;;;;;;6189886;28;20054;-87
2023/10/12 04:21:04;;;;;;;7.72;4.10;;;16.50;87.90;;;;;;6174106;28;20098;-87
2023/10/12 04:34:31;;;;;;;3.92;2.00;;;15.80;86.50;;;;;;6149137;29;20058;-83
2023/10/12 04:37:12;;;;;;;3.63;1.58;;;15.60;86.00;;;;;;6150530;28;20055;-83
2023/10/12 04:43:34;;;;;;;3.40;1.65;;;15.30;86.20;;;;;;6170533;28;20053;-85
2023/10/12 04:46:46;;;;;;;3.17;1.58;;;15.10;85.90;;;;;;6171703;28;20133;-85
2023/10/12 04:53:06;;;;;;;3.25;1.90;;;15.10;86.60;;;;;;6172624;28;20051;-84
2023/10/12 04:56:09;;;;;;;4.78;1.60;;;15.10;86.80;;;;;;6171728;28;20066;-85
2023/10/12 04:59:16;;;;;;;5.45;2.10;;;14.90;86.60;;;;;;6175034;28;20082;-84
2023/10/12 05:05:54;;;;;;;5.18;1.92;;;15.00;86.70;;;;;;6151430;28;20058;-86
2023/10/12 05:08:56;;;;;;;5.28;1.95;;;15.00;87.00;;;;;;6166997;28;20052;-86
2023/10/12 05:11:58;;;;;;;4.03;2.33;;;15.00;87.10;;;;;;6190251;28;20052;-86
2023/10/12 05:15:03;;;;;;;5.38;2.47;;;15.00;87.10;;;;;;6189635;22;20054;-77
2023/10/12 05:18:10;;;;;;;4.10;2.42;;;15.00;87.10;;;;;;6154760;28;20051;-77
2023/10/12 05:21:12;;;;;;;4.78;2.58;;;15.00;87.00;;;;;;6198359;28;20054;-76
2023/10/12 05:24:13;;;;;;;4.28;2.60;;;14.90;86.90;;;;;;6173737;28;20058;-76
2023/10/12 05:27:24;;;;;;;4.32;2.58;;;14.90;87.00;;;;;;6195312;28;20046;-77
2023/10/12 05:30:27;;;;;;;7.15;2.85;;;15.00;87.10;;;;;;6145729;28;20091;-77
2023/10/12 05:34:26;;;;;;;3.63;2.28;;;15.00;87.20;;;;;;6194830;28;20054;-77
2023/10/12 05:36:50;;;;;;;4.30;2.40;;;15.00;87.20;;;;;;6152843;28;20109;-77
2023/10/12 05:39:54;;;;;;;4.78;2.30;;;14.90;86.80;;;;;;6209209;28;20099;-77
2023/10/12 05:42:56;;;;;;;4.53;2.28;;;14.90;87.10;;;;;;6173717;28;20601;-77
2023/10/12 05:46:04;;;;;;;4.60;2.42;;;14.90;87.00;;;;;;6195608;28;20050;-77
2023/10/12 05:49:13;;;;;;;4.57;2.40;;;14.90;86.70;;;;;;6147522;28;20091;-77
2023/10/12 05:52:15;;;;;;;7.03;2.50;;;14.80;86.80;;;;;;6194829;28;20069;-78
2023/10/12 05:55:21;;;;;;;5.70;2.92;;;14.80;86.80;;;;;;6171439;28;20058;-78
2023/10/12 05:58:22;;;;;;;5.63;2.63;;;14.70;86.80;;;;;;6186090;28;20047;-78
2023/10/12 06:01:35;;;;;;;6.45;3.08;;;14.70;86.80;;;;;;6192788;28;20058;-77
2023/10/12 06:04:41;;;;;;;6.50;3.05;;;14.80;87.00;;;;;;6146998;28;20059;-78
2023/10/12 06:07:43;;;;;;;5.22;2.85;;;14.70;87.00;;;;;;6194209;28;20241;-77
2023/10/12 06:10:44;;;;;;;5.43;2.80;;;14.70;87.10;;;;;;6171537;28;20058;-77
2023/10/12 06:13:51;;;;;;;6.32;3.10;;;14.70;87.10;;;;;;6176527;28;20133;-76
2023/10/12 06:16:54;;;;;;;5.78;3.05;;;14.70;87.00;;;;;;6170781;28;20059;-76
2023/10/12 06:19:58;;;;;;;5.97;3.60;;;14.70;86.90;;;;;;6194521;28;20061;-76
2023/10/12 06:23:05;;;;;;;9.55;4.00;;;14.70;87.20;;;;;;6170828;28;20069;-77
2023/10/12 06:26:14;;;;;;;6.78;3.78;;;14.70;87.10;;;;;;6146680;28;20054;-78
2023/10/12 06:29:26;;;;;;;;;;;14.70;87.10;;;;;;6172853;28;20050;-77
2023/10/12 06:32:35;;;;;;;6.28;3.90;;;14.60;86.90;;;;;;6146407;28;20078;-76
2023/10/12 06:35:39;;;;;;;5.88;3.22;;;14.70;87.00;;;;;;6193592;28;20073;-76
2023/10/12 06:42:09;;;;;;;6.32;3.42;;;14.60;86.90;;;;;;6193818;28;20062;-77
2023/10/12 06:45:15;;;;;;;6.45;3.10;;;14.60;87.00;;;;;;6145163;28;20055;-76
2023/10/12 06:51:32;;;;;;;7.75;3.35;;;14.70;87.20;;;;;;6173004;28;20138;-76
2023/10/12 06:54:49;;;;;;;5.70;3.00;;;14.70;87.20;;;;;;6198848;28;20062;-76
2023/10/12 06:57:53;;;;;;;5.65;3.35;;;14.80;87.40;;;;;;6155344;28;20182;-76
2023/10/12 07:01:18;;;;;;;5.97;3.38;;;14.80;87.10;;;;;;6198861;28;20054;-76
2023/10/12 07:04:38;;;;;;;7.70;3.95;;;14.80;87.20;;;;;;6150381;28;20179;-76
2023/10/12 07:07:44;;;;;;;6.65;3.47;;;14.80;87.20;;;;;;6150651;28;20114;-77
2023/10/12 07:10:53;;;;;;;8.93;3.42;;;14.90;87.40;;;;;;6197318;28;20612;-77
2023/10/12 07:13:54;;;;;;;7.03;3.50;;;14.90;87.40;;;;;;6171022;28;20061;-76
2023/10/12 07:16:56;;;;;;;8.05;3.40;;;14.90;87.30;;;;;;6198617;28;20312;-77
2023/10/12 07:19:58;;;;;;;6.30;3.30;;;14.90;87.20;;;;;;6174491;28;20101;-76
2023/10/12 07:23:14;;;;;;;7.88;3.50;;;14.90;87.40;;;;;;6197826;28;20061;-77
2023/10/12 07:26:16;;;;;;;6.55;3.17;;;14.90;87.40;;;;;;6150388;28;20091;-77
2023/10/12 07:29:35;;;;;;;6.88;3.35;;;14.90;87.50;;;;;;6178412;28;20050;-76
2023/10/12 07:33:00;;;;;;;6.63;3.53;;;15.00;87.60;;;;;;6150404;28;20527;-76
2023/10/12 07:35:59;;;;;;;8.93;3.55;;;15.00;87.40;;;;;;6149905;29;20113;-76
2023/10/12 07:42:31;;;;;;;9.65;3.58;;;14.90;87.30;;;;;;6150077;28;20055;-77
2023/10/12 07:45:38;;;;;;;8.65;3.53;;;15.00;88.30;;;;;;6197808;28;20050;-76
2023/10/12 07:48:44;;;;;;;6.38;3.50;;;15.10;87.70;;;;;;6150221;28;20142;-77
2023/10/12 07:55:12;;;;;;;7.30;3.47;;;15.20;87.90;;;;;;6149778;29;20138;-76
2023/10/12 07:58:18;;;;;;;6.47;3.38;;;15.20;87.60;;;;;;6187400;28;20057;-76
2023/10/12 08:01:26;;;;;;;9.90;4.07;;;15.20;87.60;;;;;;6173318;28;20047;-76
2023/10/12 08:04:29;;;;;;;9.00;4.30;;;15.20;87.60;;;;;;6149335;28;20066;-76
2023/10/12 08:07:55;;;;;;;8.98;3.83;;;15.20;87.70;;;;;;6197203;28;20061;-76
2023/10/12 08:10:59;;;;;;;7.60;3.65;;;15.20;87.60;;;;;;6149125;28;20495;-76
2023/10/12 08:14:39;;;;;;;6.70;3.67;;;15.20;87.60;;;;;;6168262;28;20336;-76
2023/10/12 08:17:34;;;;;;;8.90;3.70;;;15.20;87.50;;;;;;6197029;28;20494;-77
2023/10/12 08:20:53;;;;;;;7.82;3.90;;;15.30;87.70;;;;;;6174542;28;20065;-77
2023/10/12 08:24:22;;;;;;;8.07;4.07;;;15.20;87.30;;;;;;6149501;28;20490;-77
2023/10/12 08:27:24;;;;;;;7.65;3.60;;;15.20;87.30;;;;;;6172921;28;20051;-77
2023/10/12 08:30:48;;;;;;;7.95;4.40;;;15.30;87.60;;;;;;6196831;28;20428;-76
2023/10/12 08:33:58;;;;;;;12.65;5.30;;;15.30;87.50;;;;;;6148517;28;20207;-77
2023/10/12 08:40:17;;;;;;;9.57;4.65;;;15.40;87.50;;;;;;6148648;29;20051;-77
2023/10/12 08:43:34;;;;;;;9.30;4.93;;;15.40;87.40;;;;;;6158796;28;20061;-77
2023/10/12 08:46:51;;;;;;;8.75;4.22;;;15.40;87.50;;;;;;6148356;28;20058;-76
2023/10/12 08:50:01;;;;;;;9.43;4.30;;;15.50;87.30;;;;;;6147010;29;20423;-77
2023/10/12 08:53:03;;;;;;;;;;;15.50;87.00;;;;;;6149152;28;20055;-77
2023/10/12 08:56:08;;;;;;;9.63;4.05;;;15.40;86.90;;;;;;6195704;28;19933;-77
2023/10/12 08:59:10;;;;;;;11.05;4.68;;;15.40;85.90;;;;;;6183802;28;20061;-77
2023/10/12 09:02:19;;;;;;;9.63;4.13;;;15.40;86.40;;;;;;6173260;28;20070;-76
2023/10/12 09:05:30;;;;;;;7.63;4.18;;;15.40;86.40;;;;;;6148323;28;20058;-77
2023/10/12 09:11:33;;;;;;;6.97;3.20;;;15.30;86.40;;;;;;6172327;28;20055;-76
2023/10/12 09:14:35;;;;;;;7.43;3.20;;;15.30;86.40;;;;;;6187652;28;20422;-77
2023/10/12 09:17:40;;;;;;;6.68;2.88;;;15.30;86.40;;;;;;6172214;28;20054;-77
2023/10/12 09:20:59;;;;;;;5.10;2.50;;;15.30;86.20;;;;;;6147892;28;20046;-77
2023/10/12 09:27:26;;;;;;;5.13;2.53;;;15.30;86.40;;;;;;6194804;28;20054;-77
2023/10/12 09:30:28;;;;;;;3.97;2.30;;;15.30;86.50;;;;;;6144985;28;20186;-77
2023/10/12 09:33:45;;;;;;;4.75;2.65;;;15.40;86.70;;;;;;6147740;28;20055;-77
2023/10/12 09:36:55;;;;;;;4.78;2.40;;;15.50;86.80;;;;;;6171590;28;20066;-77
2023/10/12 09:39:58;;;;;;;5.43;2.40;;;15.60;86.80;;;;;;6194809;28;20065;-77
2023/10/12 09:43:06;;;;;;;4.60;2.13;;;15.60;86.30;;;;;;6169201;28;20506;-76
2023/10/12 09:46:09;;;;;;;5.38;2.20;;;15.50;85.20;;;;;;6194972;28;20065;-77
2023/10/12 09:49:21;;;;;;;3.97;2.00;;;15.50;85.30;;;;;;6171888;28;20054;-76
2023/10/12 09:52:23;;;;;;;5.40;2.30;;;15.60;86.50;;;;;;6147546;28;20138;-77
2023/10/12 09:55:25;;;;;;;4.13;2.28;;;15.70;86.40;;;;;;6209411;28;20061;-78
2023/10/12 09:58:26;;;;;;;4.93;2.65;;;15.80;84.90;;;;;;6178232;28;20181;-76
2023/10/12 10:04:41;;;;;;;4.28;2.20;;;15.90;85.10;;;;;;6194377;28;20062;-77
2023/10/12 10:07:49;;;;;;;4.03;2.00;;;15.80;84.20;;;;;;6177358;28;20055;-77
2023/10/12 10:10:57;;;;;;;5.38;2.40;;;15.90;83.80;;;;;;6146853;28;20441;-76
2023/10/12 10:13:59;;;;;;;5.13;2.15;;;16.00;83.90;;;;;;6165695;28;20046;-76
2023/10/12 10:17:01;;;;;;;4.10;2.25;;;16.00;83.90;;;;;;6194482;28;20054;-77
2023/10/12 10:20:03;;;;;;;5.97;2.65;;;16.00;82.40;;;;;;6170922;28;20101;-77
2023/10/12 10:23:12;;;;;;;6.38;2.88;;;16.10;83.80;;;;;;6194734;28;20054;-77
2023/10/12 10:26:17;;;;;;;5.03;2.28;;;16.20;81.60;;;;;;6148409;28;20503;-77
2023/10/12 10:29:20;;;;;;;5.45;2.50;;;16.20;83.70;;;;;;6179759;28;20062;-77
2023/10/12 10:32:23;;;;;;;4.50;2.47;;;16.10;82.30;;;;;;6175719;28;20056;-77
2023/10/12 10:35:25;;;;;;;5.43;2.78;;;16.10;83.10;;;;;;6199100;28;20101;-77
2023/10/12 10:38:32;;;;;;;5.80;2.80;;;16.10;82.70;;;;;;6175359;28;20503;-78
2023/10/12 10:44:42;;;;;;;11.20;6.22;;;16.20;83.10;;;;;;6173408;28;20063;-77
2023/10/12 10:47:49;;;;;;;8.07;3.40;;;16.30;83.00;;;;;;6197117;28;20093;-76
2023/10/12 10:51:18;;;;;;;6.28;2.63;;;16.30;83.60;;;;;;6163712;28;20051;-77
2023/10/12 10:54:20;;;;;;;5.28;2.90;;;16.30;82.30;;;;;;6151143;28;20166;-76
2023/10/12 10:57:30;;;;;;;5.00;2.60;;;16.20;83.70;;;;;;6197379;28;20058;-77
2023/10/12 11:00:39;;;;;;;7.30;2.97;;;16.40;83.70;;;;;;6175021;28;20050;-77
2023/10/12 11:03:41;;;;;;;5.88;2.70;;;16.50;83.90;;;;;;6199273;28;20105;-77
2023/10/12 11:06:43;;;;;;;8.60;3.45;;;16.50;83.00;;;;;;6175460;28;20082;-77
2023/10/12 11:12:59;;;;;;;9.75;3.72;;;16.40;83.20;;;;;;6179537;28;20061;-77
2023/10/12 11:16:20;;;;;;;6.97;3.53;;;16.40;83.70;;;;;;6196698;28;20128;-77
2023/10/12 11:19:23;;;;;;;5.72;2.83;;;16.40;83.70;;;;;;6150359;28;20568;-77
2023/10/12 11:22:25;;;;;;;6.22;3.15;;;16.20;82.70;;;;;;6199446;28;20055;-77
2023/10/12 11:25:27;;;;;;;5.00;2.83;;;16.30;83.40;;;;;;6181953;28;20414;-76
2023/10/12 11:28:28;;;;;;;5.82;2.95;;;16.30;84.10;;;;;;6184929;28;20062;-77
2023/10/12 11:31:30;;;;;;;5.18;2.90;;;16.30;84.10;;;;;;6196565;28;20058;-77
2023/10/12 11:34:33;;;;;;;4.70;2.65;;;16.40;84.90;;;;;;6175331;28;20059;-76
2023/10/12 11:37:35;;;;;;;5.38;2.35;;;16.50;85.00;;;;;;6196885;28;20062;-76
2023/10/12 11:40:37;;;;;;;6.13;2.60;;;16.50;85.00;;;;;;6174131;28;20055;-76
2023/10/12 11:43:39;;;;;;;4.65;2.53;;;16.60;85.00;;;;;;6184676;28;20085;-76
2023/10/12 11:46:43;;;;;;;6.32;2.80;;;16.60;84.20;;;;;;6197403;28;20057;-76
2023/10/12 11:49:45;;;;;;;4.97;2.58;;;16.60;85.20;;;;;;6173645;28;20063;-76
2023/10/12 11:52:51;;;;;;;5.68;3.15;;;16.70;84.00;;;;;;6197793;28;20513;-76
2023/10/12 11:55:53;;;;;;;6.70;3.50;;;16.80;83.10;;;;;;6149666;28;20162;-76
2023/10/12 11:58:55;;;;;;;6.95;3.80;;;16.90;84.10;;;;;;6180450;28;20054;-77
2023/10/12 12:02:00;;;;;;;7.78;4.72;;;17.00;84.20;;;;;;6197334;28;20057;-77
2023/10/12 12:05:04;;;;;;;10.60;4.82;;;17.10;82.20;;;;;;6150425;28;20063;-77
2023/10/12 12:08:18;;;;;;;10.57;5.68;;;17.20;82.60;;;;;;6149261;28;20055;-77
2023/10/12 12:11:19;;;;;;;;;;;17.30;81.60;;;;;;6173993;28;20055;-77
2023/10/12 12:14:21;;;;;;;9.48;5.60;;;17.20;78.30;;;;;;6189397;28;20377;-77
2023/10/12 12:17:25;;;;;;;10.55;5.65;;;17.20;79.90;;;;;;6197529;28;20054;-77
2023/10/12 12:20:30;;;;;;;10.23;5.63;;;17.20;79.60;;;;;;6172868;28;20076;-77
2023/10/12 12:23:40;;;;;;;10.32;5.57;;;17.20;80.50;;;;;;6149339;28;20133;-77
2023/10/12 12:26:45;;;;;;;10.05;5.40;;;17.10;79.80;;;;;;6196218;28;20050;-77
2023/10/12 12:29:50;;;;;;;10.48;5.20;;;17.10;79.40;;;;;;6147253;28;20138;-77
2023/10/12 12:33:15;;;;;;;9.50;5.35;;;17.10;79.60;;;;;;6149132;28;20058;-77
2023/10/12 12:36:29;;;;;;;13.05;5.25;;;17.00;78.10;;;;;;6148839;28;20055;-76
2023/10/12 12:39:33;;;;;;;9.07;5.00;;;17.00;80.20;;;;;;6148774;28;20055;-76
2023/10/12 12:42:34;;;;;;;8.70;4.55;;;17.00;77.20;;;;;;6192242;28;20838;-76
2023/10/12 12:45:36;;;;;;;8.75;5.00;;;16.90;78.80;;;;;;6172355;28;20058;-76
2023/10/12 12:48:38;;;;;;;7.90;5.03;;;16.80;79.80;;;;;;6195700;28;20054;-76
2023/10/12 12:51:40;;;;;;;9.30;5.07;;;16.90;80.60;;;;;;6172507;28;20055;-76
2023/10/12 12:54:42;;;;;;;10.45;5.35;;;16.80;77.10;;;;;;6195496;28;20407;-75
2023/10/12 12:57:45;;;;;;;9.93;5.30;;;16.70;78.80;;;;;;6181462;28;20056;-76
2023/10/12 13:00:47;;;;;;;10.25;5.20;;;16.70;80.10;;;;;;6196464;28;20058;-76
2023/10/12 13:03:51;;;;;;;9.57;5.35;;;16.90;80.60;;;;;;6148112;29;20058;-76
2023/10/12 13:06:53;;;;;;;10.52;5.82;;;17.00;80.70;;;;;;6195902;28;20053;-76
2023/10/12 13:10:07;;;;;;;10.68;6.07;;;17.00;77.20;;;;;;6148160;28;20058;-76
2023/10/12 13:13:09;;;;;;;10.95;6.18;;;17.20;79.60;;;;;;6184478;28;20050;-76
2023/10/12 13:16:14;;;;;;;11.20;6.90;;;17.20;77.30;;;;;;6169423;28;20106;-76
2023/10/12 13:19:17;;;;;;;13.18;7.60;;;17.20;75.90;;;;;;6195144;28;20050;-76
2023/10/12 13:22:19;;;;;;;11.52;6.75;;;17.20;77.60;;;;;;6172429;28;20054;-76
2023/10/12 13:25:21;;;;;;;13.93;7.35;;;17.10;75.00;;;;;;6194876;28;20109;-76
2023/10/12 13:28:23;;;;;;;12.93;7.47;;;17.10;76.30;;;;;;6177896;28;20408;-76
2023/10/12 13:31:26;;;;;;;12.77;8.23;;;17.20;77.30;;;;;;6171867;28;20061;-76
2023/10/12 13:34:28;;;;;;;12.20;7.63;;;17.50;74.20;;;;;;6193515;28;20056;-76
2023/10/12 13:37:30;;;;;;;14.43;7.88;;;17.60;75.50;;;;;;6171218;28;20057;-76
2023/10/12 13:40:33;;;;;;;14.68;7.60;;;17.50;69.60;;;;;;6195075;28;20050;-76
2023/10/12 13:43:37;;;;;;;13.02;7.63;;;17.70;72.50;;;;;;6179384;28;20058;-75
2023/10/12 13:46:39;;;;;;;12.27;7.45;;;17.80;72.70;;;;;;6171208;28;20047;-77
2023/10/12 13:49:41;;;;;;;11.68;6.57;;;17.80;70.50;;;;;;6193926;28;20060;-75
2023/10/12 13:52:42;;;;;;;12.02;6.22;;;17.60;68.30;;;;;;6171135;28;20483;-76
2023/10/12 13:55:47;;;;;;;10.93;6.68;;;17.40;72.40;;;;;;6194758;28;20060;-76
2023/10/12 13:58:49;;;;;;;8.93;5.38;;;17.30;72.90;;;;;;6182323;28;20054;-77
2023/10/12 14:01:51;;;;;;;9.18;5.78;;;17.20;70.30;;;;;;6177784;28;20468;-77
2023/10/12 14:04:54;;;;;;;7.95;4.88;;;17.00;73.50;;;;;;6194287;28;20050;-76
2023/10/12 14:07:58;;;;;;;8.63;4.78;;;17.10;76.20;;;;;;6171183;28;20423;-77
2023/10/12 14:11:03;;;;;;;7.93;4.88;;;17.10;74.50;;;;;;6194229;28;20058;-76
2023/10/12 14:14:09;;;;;;;9.25;5.15;;;17.10;77.00;;;;;;6166638;28;20140;-76
2023/10/12 14:17:11;;;;;;;8.57;4.70;;;17.00;76.30;;;;;;6194998;28;20090;-76
2023/10/12 14:20:13;;;;;;;9.20;5.13;;;17.10;74.40;;;;;;6170188;28;20062;-76
2023/10/12 14:23:15;;;;;;;8.20;5.38;;;17.10;74.40;;;;;;6193390;28;20063;-77
2023/10/12 14:26:22;;;;;;;8.98;5.15;;;17.20;75.30;;;;;;6171439;28;20054;-76
2023/10/12 14:29:25;;;;;;;9.20;4.38;;;17.20;74.00;;;;;;6194357;28;20060;-76
2023/10/12 14:32:27;;;;;;;7.85;4.32;;;17.00;72.60;;;;;;6175016;28;20094;-77
2023/10/12 14:35:29;;;;;;;7.97;4.57;;;16.90;74.20;;;;;;6193538;28;20072;-77
2023/10/12 14:38:32;;;;;;;7.95;4.95;;;16.90;75.90;;;;;;6170595;28;20125;-76
2023/10/12 14:41:36;;;;;;;8.48;4.97;;;17.00;75.00;;;;;;6146316;28;20180;-77
2023/10/12 14:44:38;;;;;;;7.68;4.85;;;17.00;76.80;;;;;;6208088;28;20584;-77
2023/10/12 14:47:40;;;;;;;10.60;5.88;;;16.90;75.00;;;;;;6170618;28;20054;-76
2023/10/12 14:50:45;;;;;;;7.93;5.25;;;16.90;74.40;;;;;;6194204;28;20172;-76
2023/10/12 14:53:50;;;;;;;11.05;6.00;;;16.90;76.60;;;;;;6148281;28;20491;-76
2023/10/12 14:56:53;;;;;;;11.07;5.32;;;17.00;77.20;;;;;;6208585;28;20169;-77
2023/10/12 14:59:55;;;;;;;11.15;5.90;;;17.10;76.80;;;;;;6166847;28;20065;-77
2023/10/12 15:02:57;;;;;;;10.40;6.10;;;17.00;74.80;;;;;;6193406;28;20057;-77
2023/10/12 15:06:00;;;;;;;11.00;6.20;;;17.00;75.20;;;;;;6170638;28;20050;-77
2023/10/12 15:09:03;;;;;;;12.05;5.97;;;17.00;73.80;;;;;;6193633;28;20059;-77
2023/10/12 15:12:05;;;;;;;11.88;6.03;;;17.10;76.30;;;;;;6171947;28;20152;-77
2023/10/12 15:15:10;;;;;;;10.13;6.07;;;17.20;75.70;;;;;;6190523;28;20506;-77
2023/10/12 15:18:12;;;;;;;10.20;6.18;;;17.20;76.60;;;;;;6174704;28;20058;-76
2023/10/12 15:21:14;;;;;;;11.77;5.93;;;17.20;76.10;;;;;;6196636;28;20351;-76
2023/10/12 15:24:19;;;;;;;11.52;5.82;;;17.10;76.30;;;;;;6174801;28;20062;-77
2023/10/12 15:27:22;;;;;;;9.30;5.38;;;17.10;77.20;;;;;;6198024;28;20057;-77
2023/10/12 15:30:26;;;;;;;10.00;6.00;;;17.10;75.30;;;;;;6170499;28;20066;-77
2023/10/12 15:33:28;;;;;;;10.98;5.40;;;17.00;76.50;;;;;;6197927;28;20065;-77
2023/10/12 15:36:29;;;;;;;8.93;5.25;;;17.00;77.20;;;;;;6173729;28;20439;-78
2023/10/12 15:39:32;;;;;;;9.50;5.07;;;16.90;77.10;;;;;;6197651;28;20058;-76
2023/10/12 15:42:33;;;;;;;8.73;4.97;;;17.00;77.20;;;;;;6175464;28;20055;-76
2023/10/12 15:45:38;;;;;;;10.45;5.70;;;16.90;77.10;;;;;;6198958;28;20059;-76
2023/10/12 15:48:41;;;;;;;12.15;5.95;;;16.90;77.50;;;;;;6149579;28;20051;-76
2023/10/12 15:51:42;;;;;;;9.02;5.45;;;16.90;77.40;;;;;;6197080;28;20054;-76
2023/10/12 15:54:44;;;;;;;9.23;5.30;;;17.00;78.70;;;;;;6173996;28;20058;-77
2023/10/12 15:57:46;;;;;;;8.82;5.43;;;17.00;77.30;;;;;;6190143;28;20051;-77
2023/10/12 16:00:48;;;;;;;9.57;5.43;;;17.00;78.80;;;;;;6173594;28;20533;-76
2023/10/12 16:03:50;;;;;;;7.25;4.18;;;17.00;78.00;;;;;;6149234;29;20418;-76
2023/10/12 16:06:51;;;;;;;9.48;5.50;;;17.00;78.00;;;;;;6196373;28;20054;-76
2023/10/12 16:09:53;;;;;;;10.30;5.40;;;17.00;78.00;;;;;;6173570;28;20395;-76
2023/10/12 16:12:55;;;;;;;9.23;5.18;;;16.90;76.50;;;;;;6186459;28;20141;-76
2023/10/12 16:15:57;;;;;;;11.43;5.65;;;16.90;77.70;;;;;;6170923;28;20419;-76
2023/10/12 16:18:58;;;;;;;12.32;5.53;;;16.90;78.00;;;;;;6196923;28;20054;-77
2023/10/12 16:22:00;;;;;;;9.60;5.43;;;16.90;78.40;;;;;;6174189;28;20051;-76
2023/10/12 16:25:07;;;;;;;9.27;5.40;;;16.90;78.70;;;;;;6194854;28;20167;-76
2023/10/12 16:28:08;;;;;;;10.32;5.60;;;16.80;77.80;;;;;;6170410;28;20050;-76
2023/10/12 16:31:10;;;;;;;9.10;5.13;;;16.80;77.00;;;;;;6196785;28;20057;-78
2023/10/12 16:34:14;;;;;;;9.55;5.55;;;16.90;79.00;;;;;;6172805;28;20094;-78
2023/10/12 16:37:15;;;;;;;12.02;5.28;;;16.80;79.40;;;;;;6196042;28;20061;-77
2023/10/12 16:40:18;;;;;;;8.70;4.88;;;16.90;80.00;;;;;;6172776;28;20527;-76
2023/10/12 16:43:23;;;;;;;11.27;5.95;;;16.90;79.80;;;;;;6185794;28;20058;-76
2023/10/12 16:46:24;;;;;;;8.63;5.38;;;16.80;79.50;;;;;;6196480;28;20363;-76
2023/10/12 16:49:27;;;;;;;13.15;5.82;;;16.80;79.50;;;;;;6172998;28;20065;-78
2023/10/12 16:52:29;;;;;;;10.93;6.13;;;16.80;80.00;;;;;;6196012;28;20058;-77
2023/10/12 16:55:30;;;;;;;11.25;5.88;;;16.80;79.90;;;;;;6172275;28;20061;-77
2023/10/12 16:58:33;;;;;;;12.45;5.93;;;16.80;80.20;;;;;;6178650;28;20207;-77
2023/10/12 17:01:35;;;;;;;11.13;6.38;;;16.80;80.00;;;;;;6195304;28;20502;-76
2023/10/12 17:04:37;;;;;;;12.88;6.22;;;16.70;80.20;;;;;;6172418;28;20162;-77
2023/10/12 17:07:43;;;;;;;13.73;7.07;;;16.70;80.40;;;;;;6195452;28;20053;-77